createdAt,value
2018-10-04T00:00:33.614Z,0.00
2018-10-04T00:01:33.650Z,0.00
2018-10-04T00:02:34.231Z,0.00
2018-10-04T00:03:33.532Z,0.00
2018-10-04T00:04:33.479Z,0.00
2018-10-04T00:05:33.386Z,0.00
2018-10-04T00:06:33.356Z,0.00
2018-10-04T00:07:33.338Z,0.00
2018-10-04T00:08:33.618Z,0.00
2018-10-04T00:09:33.353Z,0.00
2018-10-04T00:10:33.436Z,0.00
2018-10-04T00:11:33.258Z,0.00
2018-10-04T00:12:33.288Z,0.00
2018-10-04T00:14:33.633Z,0.00
2018-10-04T00:15:33.259Z,0.00
2018-10-04T00:17:33.138Z,0.00
2018-10-04T00:18:33.132Z,0.00
2018-10-04T00:19:33.098Z,0.00
2018-10-04T00:20:33.383Z,0.00
2018-10-04T00:21:33.109Z,0.00
2018-10-04T00:22:33.041Z,0.00
2018-10-04T00:23:33.022Z,0.00
2018-10-04T00:24:32.999Z,0.00
2018-10-04T00:25:32.977Z,0.00
2018-10-04T00:26:33.263Z,0.00
2018-10-04T00:27:33.190Z,0.00
2018-10-04T00:28:32.967Z,0.00
2018-10-04T00:30:32.876Z,0.00
2018-10-04T00:31:32.863Z,0.00
2018-10-04T00:32:33.188Z,0.00
2018-10-04T00:33:32.871Z,0.00
2018-10-04T00:34:32.854Z,0.00
2018-10-04T00:35:32.787Z,0.00
2018-10-04T00:37:32.785Z,0.00
2018-10-04T00:38:32.847Z,0.00
2018-10-04T00:39:33.017Z,0.00
2018-10-04T00:40:32.676Z,0.00
2018-10-04T00:41:32.662Z,0.00
2018-10-04T00:42:32.636Z,0.00
2018-10-04T00:43:32.686Z,0.00
2018-10-04T00:44:32.676Z,0.00
2018-10-04T00:45:32.653Z,0.00
2018-10-04T00:46:32.909Z,0.00
2018-10-04T00:47:32.625Z,0.00
2018-10-04T00:48:32.523Z,0.00
2018-10-04T00:49:32.561Z,0.00
2018-10-04T00:50:32.626Z,0.00
2018-10-04T00:51:32.457Z,0.00
2018-10-04T00:52:32.433Z,0.00
2018-10-04T00:53:32.784Z,0.00
2018-10-04T00:54:32.404Z,0.00
2018-10-04T00:55:32.427Z,0.00
2018-10-04T00:57:32.340Z,0.00
2018-10-04T01:00:32.622Z,0.00
2018-10-04T01:01:32.312Z,0.00
2018-10-04T01:02:32.240Z,0.00
2018-10-04T01:03:33.005Z,0.00
2018-10-04T01:04:32.201Z,0.00
2018-10-04T01:05:32.174Z,0.00
2018-10-04T01:06:32.463Z,0.00
2018-10-04T01:07:32.582Z,0.00
2018-10-04T01:08:32.206Z,0.00
2018-10-04T01:09:32.388Z,0.00
2018-10-04T01:10:32.134Z,0.00
2018-10-04T01:11:32.169Z,0.00
2018-10-04T01:12:32.040Z,0.00
2018-10-04T01:13:32.024Z,0.00
2018-10-04T01:14:32.452Z,0.00
2018-10-04T01:15:32.117Z,0.00
2018-10-04T01:16:32.008Z,0.00
2018-10-04T01:17:31.939Z,0.00
2018-10-04T01:18:32.066Z,0.00
2018-10-04T01:19:31.988Z,0.00
2018-10-04T01:20:31.871Z,0.00
2018-10-04T01:21:32.155Z,0.00
2018-10-04T01:22:31.888Z,0.00
2018-10-04T01:23:31.821Z,0.00
2018-10-04T01:24:31.794Z,0.00
2018-10-04T01:25:31.782Z,0.00
2018-10-04T01:27:32.340Z,0.00
2018-10-04T01:28:31.715Z,0.00
2018-10-04T01:29:31.757Z,0.00
2018-10-04T01:31:31.723Z,0.00
2018-10-04T01:32:32.352Z,0.00
2018-10-04T01:33:31.964Z,0.00
2018-10-04T01:35:31.579Z,0.00
2018-10-04T01:36:31.653Z,0.00
2018-10-04T01:37:31.535Z,0.00
2018-10-04T01:38:31.591Z,0.00
2018-10-04T01:39:31.801Z,0.00
2018-10-04T01:40:31.531Z,0.00
2018-10-04T01:41:31.526Z,0.00
2018-10-04T01:42:31.448Z,0.00
2018-10-04T01:45:31.833Z,0.00
2018-10-04T01:46:31.508Z,0.00
2018-10-04T01:47:31.409Z,0.00
2018-10-04T01:48:31.369Z,0.00
2018-10-04T01:49:31.343Z,0.00
2018-10-04T01:50:31.275Z,0.00
2018-10-04T01:51:31.609Z,0.00
2018-10-04T01:52:31.315Z,0.00
2018-10-04T01:53:31.329Z,0.00
2018-10-04T01:54:31.301Z,0.00
2018-10-04T01:55:31.221Z,0.00
2018-10-04T01:56:31.147Z,0.00
2018-10-04T01:57:31.448Z,0.00
2018-10-04T01:58:31.125Z,0.00
2018-10-04T01:59:31.165Z,0.00
2018-10-04T02:00:31.697Z,0.00
2018-10-04T02:01:31.137Z,0.00
2018-10-04T02:02:31.104Z,0.00
2018-10-04T02:03:31.090Z,0.00
2018-10-04T02:04:31.288Z,0.00
2018-10-04T02:05:31.018Z,0.00
2018-10-04T02:06:30.997Z,0.00
2018-10-04T02:07:30.929Z,0.00
2018-10-04T02:08:30.906Z,0.00
2018-10-04T02:09:31.075Z,0.00
2018-10-04T02:10:32.569Z,0.00
2018-10-04T02:11:31.202Z,0.00
2018-10-04T02:12:30.832Z,0.00
2018-10-04T02:14:30.899Z,0.00
2018-10-04T02:15:30.780Z,0.00
2018-10-04T02:16:30.753Z,0.00
2018-10-04T02:17:30.787Z,0.00
2018-10-04T02:18:31.017Z,0.00
2018-10-04T02:19:30.696Z,0.00
2018-10-04T02:20:30.715Z,0.00
2018-10-04T02:21:30.645Z,0.00
2018-10-04T02:22:30.679Z,0.00
2018-10-04T02:23:30.619Z,0.00
2018-10-04T02:24:30.650Z,0.00
2018-10-04T02:25:30.876Z,0.00
2018-10-04T02:26:30.597Z,0.00
2018-10-04T02:27:30.604Z,0.00
2018-10-04T02:28:30.664Z,0.00
2018-10-04T02:29:30.490Z,0.00
2018-10-04T02:30:30.526Z,0.00
2018-10-04T02:31:30.455Z,0.00
2018-10-04T02:32:30.747Z,0.00
2018-10-04T02:33:30.414Z,0.00
2018-10-04T02:34:30.388Z,0.00
2018-10-04T02:35:30.371Z,0.00
2018-10-04T02:36:30.349Z,0.00
2018-10-04T02:37:30.848Z,0.00
2018-10-04T02:39:31.347Z,0.00
2018-10-04T02:41:30.250Z,0.00
2018-10-04T02:42:30.271Z,0.00
2018-10-04T02:43:30.759Z,0.00
2018-10-04T02:44:30.189Z,0.00
2018-10-04T02:45:30.226Z,0.00
2018-10-04T02:46:30.525Z,0.00
2018-10-04T02:47:30.218Z,0.00
2018-10-04T02:48:30.295Z,0.00
2018-10-04T02:49:30.193Z,0.00
2018-10-04T02:50:30.068Z,0.00
2018-10-04T02:51:30.153Z,0.00
2018-10-04T02:52:30.528Z,0.00
2018-10-04T02:53:30.015Z,0.00
2018-10-04T02:54:30.046Z,0.00
2018-10-04T02:55:29.978Z,0.00
2018-10-04T02:56:30.054Z,0.00
2018-10-04T02:57:30.113Z,0.00
2018-10-04T02:58:30.223Z,0.00
2018-10-04T02:59:29.943Z,0.00
2018-10-04T03:00:29.942Z,0.00
2018-10-04T03:01:29.928Z,0.00
2018-10-04T03:02:29.929Z,0.00
2018-10-04T03:03:29.811Z,0.00
2018-10-04T03:04:30.093Z,0.00
2018-10-04T03:05:29.844Z,0.00
2018-10-04T03:06:29.749Z,0.00
2018-10-04T03:07:29.733Z,0.00
2018-10-04T03:08:29.760Z,0.00
2018-10-04T03:09:29.748Z,0.00
2018-10-04T03:10:29.976Z,0.00
2018-10-04T03:11:29.660Z,0.00
2018-10-04T03:12:29.636Z,0.00
2018-10-04T03:13:29.612Z,0.00
2018-10-04T03:14:29.588Z,0.00
2018-10-04T03:15:29.931Z,0.00
2018-10-04T03:16:29.856Z,0.00
2018-10-04T03:17:29.642Z,0.00
2018-10-04T03:19:29.712Z,0.00
2018-10-04T03:20:29.481Z,0.00
2018-10-04T03:21:29.566Z,0.00
2018-10-04T03:22:29.738Z,0.00
2018-10-04T03:23:29.598Z,0.00
2018-10-04T03:24:29.575Z,0.00
2018-10-04T03:25:29.373Z,0.00
2018-10-04T03:27:29.449Z,0.00
2018-10-04T03:28:29.371Z,0.00
2018-10-04T03:29:29.767Z,0.00
2018-10-04T03:30:29.282Z,0.00
2018-10-04T03:31:29.258Z,0.00
2018-10-04T03:32:29.352Z,0.00
2018-10-04T03:33:29.268Z,0.00
2018-10-04T03:34:29.320Z,0.00
2018-10-04T03:35:29.184Z,0.00
2018-10-04T03:36:29.536Z,0.00
2018-10-04T03:37:29.227Z,0.00
2018-10-04T03:38:29.254Z,0.00
2018-10-04T03:39:29.211Z,0.00
2018-10-04T03:40:29.295Z,0.00
2018-10-04T03:41:29.173Z,0.00
2018-10-04T03:42:29.189Z,0.00
2018-10-04T03:43:29.423Z,0.00
2018-10-04T03:44:29.240Z,0.00
2018-10-04T03:45:29.134Z,0.00
2018-10-04T03:46:29.113Z,0.00
2018-10-04T03:47:29.084Z,0.00
2018-10-04T03:48:29.062Z,0.00
2018-10-04T03:49:29.057Z,0.00
2018-10-04T03:50:29.415Z,0.00
2018-10-04T03:51:28.986Z,0.00
2018-10-04T03:52:28.970Z,0.00
2018-10-04T03:53:28.946Z,0.00
2018-10-04T03:54:28.923Z,0.00
2018-10-04T03:55:28.846Z,0.00
2018-10-04T03:56:28.827Z,0.00
2018-10-04T03:57:29.229Z,0.00
2018-10-04T03:58:28.793Z,0.00
2018-10-04T03:59:28.829Z,0.00
2018-10-04T04:01:28.791Z,0.00
2018-10-04T04:02:28.829Z,0.00
2018-10-04T04:03:28.755Z,0.00
2018-10-04T04:04:29.466Z,0.00
2018-10-04T04:05:28.605Z,0.00
2018-10-04T04:06:28.641Z,0.00
2018-10-04T04:07:28.631Z,0.00
2018-10-04T04:08:28.577Z,0.00
2018-10-04T04:09:28.643Z,0.00
2018-10-04T04:10:29.011Z,0.00
2018-10-04T04:11:28.792Z,0.00
2018-10-04T04:12:28.473Z,0.00
2018-10-04T04:13:28.457Z,0.00
2018-10-04T04:14:28.641Z,0.00
2018-10-04T04:15:28.492Z,0.00
2018-10-04T04:16:28.800Z,0.00
2018-10-04T04:17:28.763Z,0.00
2018-10-04T04:18:28.533Z,0.00
2018-10-04T04:19:28.414Z,0.00
2018-10-04T04:20:28.329Z,0.00
2018-10-04T04:21:28.380Z,0.00
2018-10-04T04:22:29.245Z,0.00
2018-10-04T04:23:30.387Z,0.00
2018-10-04T04:24:28.472Z,0.00
2018-10-04T04:25:28.306Z,0.00
2018-10-04T04:26:28.206Z,0.00
2018-10-04T04:27:28.299Z,0.00
2018-10-04T04:28:28.326Z,0.00
2018-10-04T04:29:28.594Z,0.00
2018-10-04T04:30:28.177Z,0.00
2018-10-04T04:31:28.113Z,0.00
2018-10-04T04:32:28.143Z,0.00
2018-10-04T04:33:28.156Z,0.00
2018-10-04T04:34:28.055Z,0.00
2018-10-04T04:35:28.497Z,0.00
2018-10-04T04:36:28.126Z,0.00
2018-10-04T04:37:27.998Z,0.00
2018-10-04T04:38:27.982Z,0.00
2018-10-04T04:39:27.960Z,0.00
2018-10-04T04:40:28.150Z,0.00
2018-10-04T04:41:28.279Z,0.00
2018-10-04T04:42:27.915Z,0.00
2018-10-04T04:43:27.892Z,0.00
2018-10-04T04:44:27.866Z,0.00
2018-10-04T04:45:27.945Z,0.00
2018-10-04T04:47:28.166Z,0.00
2018-10-04T04:48:27.790Z,0.00
2018-10-04T04:51:28.076Z,0.00
2018-10-04T04:52:27.720Z,0.00
2018-10-04T04:54:27.792Z,0.00
2018-10-04T04:55:27.772Z,0.00
2018-10-04T04:56:27.693Z,0.00
2018-10-04T04:57:27.724Z,0.00
2018-10-04T04:58:27.704Z,0.00
2018-10-04T04:59:27.590Z,0.00
2018-10-04T05:00:28.219Z,0.00
2018-10-04T05:01:27.541Z,0.00
2018-10-04T05:02:27.633Z,0.00
2018-10-04T05:03:27.590Z,0.00
2018-10-04T05:04:27.496Z,0.00
2018-10-04T05:05:27.522Z,0.00
2018-10-04T05:06:27.560Z,0.00
2018-10-04T05:07:27.823Z,0.00
2018-10-04T05:08:27.415Z,0.00
2018-10-04T05:09:27.480Z,0.00
2018-10-04T05:10:27.454Z,0.00
2018-10-04T05:11:27.411Z,0.00
2018-10-04T05:12:27.590Z,0.00
2018-10-04T05:13:27.323Z,0.00
2018-10-04T05:14:27.649Z,0.00
2018-10-04T05:15:27.369Z,0.00
2018-10-04T05:16:27.260Z,0.00
2018-10-04T05:17:27.322Z,0.00
2018-10-04T05:18:27.222Z,0.00
2018-10-04T05:19:27.208Z,0.00
2018-10-04T05:20:27.247Z,0.00
2018-10-04T05:21:27.469Z,0.00
2018-10-04T05:22:27.363Z,0.00
2018-10-04T05:23:27.155Z,0.00
2018-10-04T05:24:27.244Z,0.00
2018-10-04T05:25:27.151Z,0.00
2018-10-04T05:26:27.219Z,0.00
2018-10-04T05:27:27.059Z,0.00
2018-10-04T05:28:27.359Z,0.00
2018-10-04T05:29:27.019Z,0.00
2018-10-04T05:30:27.052Z,0.00
2018-10-04T05:31:27.139Z,5.63
2018-10-04T05:32:26.988Z,5.63
2018-10-04T05:33:26.945Z,5.63
2018-10-04T05:34:26.928Z,5.63
2018-10-04T05:35:27.262Z,5.63
2018-10-04T05:36:26.969Z,5.63
2018-10-04T05:37:26.987Z,5.63
2018-10-04T05:38:26.922Z,5.63
2018-10-04T05:40:27.112Z,5.63
2018-10-04T05:41:27.243Z,5.63
2018-10-04T05:42:26.857Z,5.63
2018-10-04T05:43:26.763Z,5.63
2018-10-04T05:44:26.830Z,5.63
2018-10-04T05:45:26.813Z,5.63
2018-10-04T05:46:27.128Z,11.25
2018-10-04T05:47:27.071Z,11.25
2018-10-04T05:48:26.744Z,11.25
2018-10-04T05:49:26.724Z,16.88
2018-10-04T05:50:26.713Z,16.88
2018-10-04T05:51:26.699Z,16.88
2018-10-04T05:52:26.692Z,16.88
2018-10-04T05:53:27.643Z,16.88
2018-10-04T05:54:26.733Z,16.88
2018-10-04T05:55:26.655Z,16.88
2018-10-04T05:56:26.629Z,22.50
2018-10-04T05:57:26.672Z,22.50
2018-10-04T05:58:26.592Z,22.50
2018-10-04T05:59:27.003Z,22.50
2018-10-04T06:00:26.552Z,22.50
2018-10-04T06:02:26.769Z,16.88
2018-10-04T06:03:26.438Z,16.88
2018-10-04T06:04:26.471Z,22.50
2018-10-04T06:05:26.768Z,22.50
2018-10-04T06:06:26.331Z,22.50
2018-10-04T06:07:26.313Z,28.13
2018-10-04T06:08:26.425Z,28.13
2018-10-04T06:09:26.355Z,28.13
2018-10-04T06:10:26.254Z,28.13
2018-10-04T06:11:26.642Z,28.13
2018-10-04T06:12:26.215Z,22.50
2018-10-04T06:13:26.279Z,16.88
2018-10-04T06:14:26.263Z,16.88
2018-10-04T06:15:26.353Z,22.50
2018-10-04T06:16:26.235Z,22.50
2018-10-04T06:18:26.174Z,28.13
2018-10-04T06:19:26.506Z,22.50
2018-10-04T06:20:26.391Z,22.50
2018-10-04T06:21:26.069Z,22.50
2018-10-04T06:22:26.038Z,28.13
2018-10-04T06:24:26.974Z,33.75
2018-10-04T06:25:26.224Z,28.13
2018-10-04T06:27:26.987Z,28.13
2018-10-04T06:28:26.061Z,28.13
2018-10-04T06:32:25.848Z,28.13
2018-10-04T06:33:26.082Z,28.13
2018-10-04T06:34:25.884Z,33.75
2018-10-04T06:37:25.775Z,33.75
2018-10-04T06:38:25.744Z,33.75
2018-10-04T06:39:25.770Z,39.38
2018-10-04T06:40:25.702Z,56.25
2018-10-04T06:41:25.691Z,61.88
2018-10-04T06:42:25.772Z,56.25
2018-10-04T06:43:26.053Z,61.88
2018-10-04T06:44:25.718Z,56.25
2018-10-04T06:45:29.049Z,61.88
2018-10-04T06:46:26.099Z,61.88
2018-10-04T06:47:25.582Z,67.50
2018-10-04T06:48:25.572Z,67.50
2018-10-04T06:49:25.543Z,61.88
2018-10-04T06:50:26.193Z,67.50
2018-10-04T06:51:25.907Z,61.88
2018-10-04T06:52:25.551Z,61.88
2018-10-04T06:53:26.218Z,56.25
2018-10-04T06:54:25.466Z,50.63
2018-10-04T06:55:25.437Z,45.00
2018-10-04T06:56:25.481Z,50.63
2018-10-04T06:57:25.858Z,61.88
2018-10-04T06:58:25.580Z,73.13
2018-10-04T06:59:25.644Z,73.13
2018-10-04T07:00:25.580Z,67.50
2018-10-04T07:01:25.420Z,73.13
2018-10-04T07:02:25.315Z,78.75
2018-10-04T07:03:25.301Z,84.38
2018-10-04T07:04:25.625Z,73.13
2018-10-04T07:05:25.314Z,67.50
2018-10-04T07:06:25.483Z,67.50
2018-10-04T07:07:25.396Z,73.13
2018-10-04T07:08:25.334Z,78.75
2018-10-04T07:09:25.330Z,95.63
2018-10-04T07:10:25.283Z,101.25
2018-10-04T07:11:25.271Z,90.00
2018-10-04T07:12:25.124Z,90.00
2018-10-04T07:13:25.108Z,90.00
2018-10-04T07:14:25.191Z,84.38
2018-10-04T07:15:25.678Z,90.00
2018-10-04T07:16:25.519Z,84.38
2018-10-04T07:17:25.045Z,95.63
2018-10-04T07:18:25.044Z,84.38
2018-10-04T07:19:25.003Z,84.38
2018-10-04T07:20:25.409Z,95.63
2018-10-04T07:21:25.026Z,101.25
2018-10-04T07:23:25.232Z,78.75
2018-10-04T07:24:24.911Z,84.38
2018-10-04T07:25:24.908Z,95.63
2018-10-04T07:26:24.877Z,95.63
2018-10-04T07:27:24.905Z,90.00
2018-10-04T07:28:24.838Z,90.00
2018-10-04T07:29:26.475Z,95.63
2018-10-04T07:30:24.799Z,112.50
2018-10-04T07:31:24.788Z,101.25
2018-10-04T07:32:26.273Z,95.63
2018-10-04T07:34:25.464Z,78.75
2018-10-04T07:35:24.735Z,90.00
2018-10-04T07:36:25.040Z,90.00
2018-10-04T07:37:24.759Z,95.63
2018-10-04T07:39:24.691Z,78.75
2018-10-04T07:40:24.626Z,84.38
2018-10-04T07:41:24.603Z,95.63
2018-10-04T07:42:25.041Z,106.88
2018-10-04T07:43:24.581Z,95.63
2018-10-04T07:45:24.533Z,106.88
2018-10-04T07:46:24.612Z,106.88
2018-10-04T07:48:24.797Z,118.13
2018-10-04T07:49:24.474Z,106.88
2018-10-04T07:50:24.517Z,106.88
2018-10-04T07:51:24.511Z,95.63
2018-10-04T07:52:24.406Z,112.50
2018-10-04T07:53:24.654Z,106.88
2018-10-04T07:54:24.378Z,112.50
2018-10-04T07:55:24.700Z,135.00
2018-10-04T07:57:24.324Z,135.00
2018-10-04T07:58:24.308Z,140.63
2018-10-04T07:59:24.725Z,146.25
2018-10-04T08:01:24.564Z,129.38
2018-10-04T08:02:24.247Z,135.00
2018-10-04T08:03:24.224Z,129.38
2018-10-04T08:04:24.275Z,112.50
2018-10-04T08:05:24.255Z,118.13
2018-10-04T08:06:24.356Z,112.50
2018-10-04T08:07:24.278Z,118.13
2018-10-04T08:08:24.454Z,118.13
2018-10-04T08:09:24.136Z,118.13
2018-10-04T08:10:24.110Z,112.50
2018-10-04T08:11:24.242Z,112.50
2018-10-04T08:12:24.255Z,123.75
2018-10-04T08:13:24.060Z,123.75
2018-10-04T08:14:24.836Z,112.50
2018-10-04T08:15:25.399Z,112.50
2018-10-04T08:16:24.228Z,129.38
2018-10-04T08:17:24.766Z,140.63
2018-10-04T08:18:24.261Z,129.38
2018-10-04T08:19:24.305Z,112.50
2018-10-04T08:20:23.953Z,140.63
2018-10-04T08:21:23.965Z,140.63
2018-10-04T08:22:24.324Z,129.38
2018-10-04T08:23:23.960Z,123.75
2018-10-04T08:24:24.075Z,135.00
2018-10-04T08:26:24.208Z,118.13
2018-10-04T08:27:23.890Z,123.75
2018-10-04T08:28:23.796Z,129.38
2018-10-04T08:29:24.199Z,118.13
2018-10-04T08:30:24.233Z,123.75
2018-10-04T08:31:23.760Z,129.38
2018-10-04T08:32:23.808Z,123.75
2018-10-04T08:33:23.717Z,140.63
2018-10-04T08:34:24.234Z,140.63
2018-10-04T08:35:23.840Z,106.88
2018-10-04T08:36:24.139Z,118.13
2018-10-04T08:37:23.714Z,129.38
2018-10-04T08:38:23.682Z,140.63
2018-10-04T08:39:23.619Z,123.75
2018-10-04T08:40:23.809Z,106.88
2018-10-04T08:41:23.852Z,112.50
2018-10-04T08:42:24.243Z,118.13
2018-10-04T08:43:24.077Z,123.75
2018-10-04T08:45:23.666Z,118.13
2018-10-04T08:46:23.515Z,101.25
2018-10-04T08:47:24.249Z,112.50
2018-10-04T08:49:23.795Z,118.13
2018-10-04T08:50:23.548Z,118.13
2018-10-04T08:51:23.595Z,112.50
2018-10-04T08:52:23.472Z,112.50
2018-10-04T08:53:23.623Z,112.50
2018-10-04T08:54:23.537Z,118.13
2018-10-04T08:55:23.666Z,118.13
2018-10-04T08:56:23.335Z,118.13
2018-10-04T08:57:23.553Z,106.88
2018-10-04T08:59:23.301Z,112.50
2018-10-04T09:00:23.321Z,118.13
2018-10-04T09:01:23.934Z,140.63
2018-10-04T09:02:23.337Z,151.88
2018-10-04T09:03:23.272Z,146.25
2018-10-04T09:04:23.897Z,140.63
2018-10-04T09:05:23.271Z,135.00
2018-10-04T09:06:23.247Z,174.38
2018-10-04T09:07:23.554Z,163.13
2018-10-04T09:08:23.146Z,135.00
2018-10-04T09:09:23.245Z,140.63
2018-10-04T09:10:23.184Z,151.88
2018-10-04T09:11:23.273Z,185.63
2018-10-04T09:12:23.071Z,185.63
2018-10-04T09:13:23.404Z,174.38
2018-10-04T09:14:23.121Z,185.63
2018-10-04T09:15:23.022Z,196.88
2018-10-04T09:16:23.182Z,208.13
2018-10-04T09:17:23.082Z,219.38
2018-10-04T09:18:23.057Z,219.38
2018-10-04T09:20:23.305Z,241.88
2018-10-04T09:21:22.983Z,180.00
2018-10-04T09:22:23.011Z,213.75
2018-10-04T09:23:23.204Z,270.00
2018-10-04T09:24:23.422Z,264.38
2018-10-04T09:25:23.713Z,230.63
2018-10-04T09:26:22.941Z,264.38
2018-10-04T09:27:23.339Z,253.13
2018-10-04T09:28:22.817Z,230.63
2018-10-04T09:29:22.878Z,241.88
2018-10-04T09:30:22.863Z,236.25
2018-10-04T09:31:22.848Z,225.00
2018-10-04T09:32:23.068Z,174.38
2018-10-04T09:33:22.878Z,180.00
2018-10-04T09:34:23.017Z,135.00
2018-10-04T09:35:23.609Z,146.25
2018-10-04T09:36:22.764Z,151.88
2018-10-04T09:38:22.731Z,174.38
2018-10-04T09:39:22.714Z,157.50
2018-10-04T09:40:22.780Z,241.88
2018-10-04T09:41:23.131Z,303.75
2018-10-04T09:42:22.963Z,286.88
2018-10-04T09:43:22.753Z,315.00
2018-10-04T09:44:22.565Z,286.88
2018-10-04T09:45:22.542Z,230.63
2018-10-04T09:46:22.651Z,230.63
2018-10-04T09:47:22.591Z,241.88
2018-10-04T09:48:22.903Z,275.63
2018-10-04T09:49:22.640Z,320.63
2018-10-04T09:50:22.543Z,258.75
2018-10-04T09:51:22.532Z,236.25
2018-10-04T09:52:22.510Z,371.25
2018-10-04T09:53:22.577Z,281.25
2018-10-04T09:54:22.577Z,264.38
2018-10-04T09:55:22.801Z,264.38
2018-10-04T09:56:22.451Z,230.63
2018-10-04T09:57:22.355Z,275.63
2018-10-04T09:58:22.406Z,326.25
2018-10-04T09:59:22.375Z,286.88
2018-10-04T10:00:22.343Z,253.13
2018-10-04T10:02:22.290Z,270.00
2018-10-04T10:03:22.276Z,281.25
2018-10-04T10:04:22.301Z,315.00
2018-10-04T10:05:22.300Z,343.13
2018-10-04T10:06:22.288Z,320.63
2018-10-04T10:08:22.553Z,258.75
2018-10-04T10:09:22.572Z,298.13
2018-10-04T10:10:22.222Z,337.50
2018-10-04T10:11:22.247Z,309.38
2018-10-04T10:12:22.132Z,309.38
2018-10-04T10:13:25.200Z,303.75
2018-10-04T10:14:22.445Z,286.88
2018-10-04T10:15:22.100Z,281.25
2018-10-04T10:16:22.127Z,303.75
2018-10-04T10:17:22.057Z,320.63
2018-10-04T10:18:22.109Z,343.13
2018-10-04T10:19:22.046Z,348.75
2018-10-04T10:20:22.372Z,376.88
2018-10-04T10:21:22.017Z,478.13
2018-10-04T10:22:22.047Z,748.13
2018-10-04T10:23:22.033Z,877.50
2018-10-04T10:24:21.971Z,472.50
2018-10-04T10:25:22.207Z,444.38
2018-10-04T10:26:22.234Z,455.63
2018-10-04T10:27:21.962Z,410.63
2018-10-04T10:28:21.956Z,388.13
2018-10-04T10:29:21.951Z,438.75
2018-10-04T10:30:21.936Z,450.00
2018-10-04T10:31:21.964Z,343.13
2018-10-04T10:32:21.855Z,331.88
2018-10-04T10:33:22.097Z,326.25
2018-10-04T10:34:23.158Z,360.00
2018-10-04T10:35:22.045Z,376.88
2018-10-04T10:36:22.121Z,303.75
2018-10-04T10:37:21.878Z,202.50
2018-10-04T10:38:22.219Z,219.38
2018-10-04T10:39:21.758Z,185.63
2018-10-04T10:40:21.866Z,225.00
2018-10-04T10:41:21.777Z,247.50
2018-10-04T10:42:21.721Z,275.63
2018-10-04T10:43:21.707Z,444.38
2018-10-04T10:44:22.115Z,348.75
2018-10-04T10:45:21.676Z,191.25
2018-10-04T10:46:21.689Z,286.88
2018-10-04T10:47:21.638Z,354.38
2018-10-04T10:48:21.629Z,450.00
2018-10-04T10:49:21.820Z,388.13
2018-10-04T10:50:21.601Z,360.00
2018-10-04T10:51:21.966Z,410.63
2018-10-04T10:52:21.575Z,315.00
2018-10-04T10:53:21.671Z,438.75
2018-10-04T10:54:21.543Z,444.38
2018-10-04T10:55:21.627Z,348.75
2018-10-04T10:56:21.606Z,360.00
2018-10-04T10:57:21.795Z,416.25
2018-10-04T10:59:21.960Z,1096.88
2018-10-04T11:00:21.461Z,489.38
2018-10-04T11:01:21.552Z,562.50
2018-10-04T11:02:21.679Z,303.75
2018-10-04T11:03:21.533Z,343.13
2018-10-04T11:04:22.210Z,286.88
2018-10-04T11:05:21.458Z,348.75
2018-10-04T11:06:21.750Z,365.63
2018-10-04T11:07:21.377Z,489.38
2018-10-04T11:08:21.379Z,568.13
2018-10-04T11:09:21.539Z,511.88
2018-10-04T11:10:21.341Z,506.25
2018-10-04T11:11:21.436Z,427.50
2018-10-04T11:13:21.785Z,427.50
2018-10-04T11:14:34.227Z,405.00
2018-10-04T11:15:21.280Z,444.38
2018-10-04T11:16:21.250Z,433.13
2018-10-04T11:17:21.244Z,421.88
2018-10-04T11:18:21.224Z,562.50
2018-10-04T11:19:21.219Z,472.50
2018-10-04T11:20:21.578Z,421.88
2018-10-04T11:21:21.185Z,450.00
2018-10-04T11:22:21.244Z,466.88
2018-10-04T11:23:21.318Z,495.00
2018-10-04T11:24:21.327Z,489.38
2018-10-04T11:25:21.178Z,466.88
2018-10-04T11:26:21.357Z,405.00
2018-10-04T11:27:21.557Z,281.25
2018-10-04T11:28:21.112Z,427.50
2018-10-04T11:29:21.174Z,371.25
2018-10-04T11:30:21.082Z,292.50
2018-10-04T11:31:21.557Z,230.63
2018-10-04T11:32:21.063Z,225.00
2018-10-04T11:33:21.062Z,202.50
2018-10-04T11:34:21.491Z,208.13
2018-10-04T11:35:21.134Z,253.13
2018-10-04T11:38:21.521Z,174.38
2018-10-04T11:39:21.742Z,202.50
2018-10-04T11:40:21.822Z,219.38
2018-10-04T11:41:21.530Z,241.88
2018-10-04T11:42:20.974Z,208.13
2018-10-04T11:43:20.992Z,236.25
2018-10-04T11:45:20.884Z,264.38
2018-10-04T11:47:21.273Z,264.38
2018-10-04T11:48:20.901Z,298.13
2018-10-04T11:49:20.909Z,286.88
2018-10-04T11:50:20.907Z,298.13
2018-10-04T11:51:20.909Z,247.50
2018-10-04T11:52:21.502Z,208.13
2018-10-04T11:53:21.125Z,225.00
2018-10-04T11:54:20.999Z,225.00
2018-10-04T11:55:20.749Z,219.38
2018-10-04T11:56:20.873Z,241.88
2018-10-04T11:57:20.868Z,236.25
2018-10-04T11:59:21.160Z,241.88
2018-10-04T12:00:21.182Z,230.63
2018-10-04T12:03:20.962Z,241.88
2018-10-04T12:04:20.769Z,225.00
2018-10-04T12:05:21.085Z,253.13
2018-10-04T12:06:20.719Z,286.88
2018-10-04T12:09:20.615Z,241.88
2018-10-04T12:10:20.604Z,241.88
2018-10-04T12:11:20.954Z,219.38
2018-10-04T12:12:20.732Z,241.88
2018-10-04T12:13:20.960Z,253.13
2018-10-04T12:14:20.701Z,253.13
2018-10-04T12:15:23.636Z,281.25
2018-10-04T12:16:20.531Z,303.75
2018-10-04T12:18:20.450Z,298.13
2018-10-04T12:19:21.752Z,360.00
2018-10-04T12:20:20.911Z,343.13
2018-10-04T12:21:20.458Z,303.75
2018-10-04T12:22:20.474Z,264.38
2018-10-04T12:23:20.492Z,253.13
2018-10-04T12:25:20.502Z,270.00
2018-10-04T12:26:20.458Z,270.00
2018-10-04T12:27:20.371Z,253.13
2018-10-04T12:29:20.393Z,320.63
2018-10-04T12:30:20.738Z,315.00
2018-10-04T12:31:20.480Z,292.50
2018-10-04T12:32:20.391Z,270.00
2018-10-04T12:33:20.334Z,270.00
2018-10-04T12:34:20.226Z,286.88
2018-10-04T12:35:20.211Z,281.25
2018-10-04T12:36:20.335Z,292.50
2018-10-04T12:37:20.631Z,348.75
2018-10-04T12:38:20.289Z,320.63
2018-10-04T12:40:20.336Z,343.13
2018-10-04T12:41:20.206Z,348.75
2018-10-04T12:42:20.250Z,326.25
2018-10-04T12:43:21.978Z,343.13
2018-10-04T12:44:20.412Z,315.00
2018-10-04T12:45:20.117Z,298.13
2018-10-04T12:46:20.127Z,298.13
2018-10-04T12:47:20.080Z,343.13
2018-10-04T12:48:20.058Z,331.88
2018-10-04T12:49:20.042Z,292.50
2018-10-04T12:50:20.066Z,309.38
2018-10-04T12:52:20.541Z,337.50
2018-10-04T12:54:20.130Z,360.00
2018-10-04T12:55:20.042Z,315.00
2018-10-04T12:56:20.104Z,326.25
2018-10-04T12:57:19.983Z,337.50
2018-10-04T12:58:19.971Z,326.25
2018-10-04T12:59:21.194Z,337.50
2018-10-04T13:00:19.913Z,331.88
2018-10-04T13:01:19.884Z,320.63
2018-10-04T13:02:19.959Z,275.63
2018-10-04T13:03:20.028Z,253.13
2018-10-04T13:04:19.975Z,236.25
2018-10-04T13:05:19.945Z,230.63
2018-10-04T13:06:20.170Z,241.88
2018-10-04T13:07:19.943Z,202.50
2018-10-04T13:08:19.873Z,247.50
2018-10-04T13:09:19.842Z,264.38
2018-10-04T13:10:19.858Z,241.88
2018-10-04T13:12:20.057Z,270.00
2018-10-04T13:13:19.734Z,270.00
2018-10-04T13:14:19.727Z,258.75
2018-10-04T13:15:19.705Z,264.38
2018-10-04T13:16:19.743Z,253.13
2018-10-04T13:17:19.736Z,230.63
2018-10-04T13:19:19.980Z,230.63
2018-10-04T13:20:19.830Z,241.88
2018-10-04T13:21:19.738Z,230.63
2018-10-04T13:22:19.627Z,236.25
2018-10-04T13:23:19.622Z,247.50
2018-10-04T13:24:19.682Z,236.25
2018-10-04T13:25:19.956Z,236.25
2018-10-04T13:26:19.664Z,230.63
2018-10-04T13:27:20.326Z,225.00
2018-10-04T13:29:19.693Z,225.00
2018-10-04T13:30:19.541Z,225.00
2018-10-04T13:31:19.527Z,219.38
2018-10-04T13:32:22.240Z,202.50
2018-10-04T13:33:19.615Z,208.13
2018-10-04T13:34:19.674Z,202.50
2018-10-04T13:35:19.505Z,213.75
2018-10-04T13:36:19.445Z,213.75
2018-10-04T13:37:19.434Z,219.38
2018-10-04T13:38:19.517Z,225.00
2018-10-04T13:39:19.492Z,241.88
2018-10-04T13:40:19.407Z,225.00
2018-10-04T13:42:19.526Z,230.63
2018-10-04T13:44:19.737Z,236.25
2018-10-04T13:46:19.473Z,230.63
2018-10-04T13:47:19.313Z,230.63
2018-10-04T13:48:19.932Z,241.88
2018-10-04T13:49:19.334Z,247.50
2018-10-04T13:50:19.572Z,253.13
2018-10-04T13:51:19.623Z,247.50
2018-10-04T13:52:19.253Z,253.13
2018-10-04T13:53:19.347Z,270.00
2018-10-04T13:54:19.396Z,264.38
2018-10-04T13:55:20.086Z,253.13
2018-10-04T13:56:20.343Z,247.50
2018-10-04T13:58:19.811Z,230.63
2018-10-04T13:59:19.653Z,230.63
2018-10-04T14:00:19.148Z,230.63
2018-10-04T14:01:19.148Z,208.13
2018-10-04T14:02:19.484Z,213.75